createdAt,value
2023-03-29T00:01:12.018Z,4.78
2023-03-29T00:04:03.051Z,4.78
2023-03-29T00:06:36.756Z,4.79
2023-03-29T00:09:20.010Z,4.79
2023-03-29T00:11:53.884Z,4.79
2023-03-29T00:14:24.780Z,4.81
2023-03-29T00:17:05.424Z,4.82
2023-03-29T00:19:56.247Z,4.84
2023-03-29T00:22:34.319Z,4.87
2023-03-29T00:25:19.072Z,4.90
2023-03-29T00:27:52.003Z,4.93
2023-03-29T00:30:25.376Z,4.95
2023-03-29T00:33:16.422Z,4.96
2023-03-29T00:35:58.210Z,4.97
2023-03-29T00:38:32.081Z,4.99
2023-03-29T00:41:03.948Z,5.01
2023-03-29T00:43:58.724Z,5.01
2023-03-29T00:46:34.954Z,5.03
2023-03-29T00:49:15.349Z,5.05
2023-03-29T00:51:49.141Z,5.06
2023-03-29T00:54:20.629Z,5.07
2023-03-29T00:56:53.152Z,5.09
2023-03-29T00:59:35.750Z,5.09
2023-03-29T01:02:10.392Z,5.11
2023-03-29T01:04:54.293Z,5.12
2023-03-29T01:07:53.818Z,5.14
2023-03-29T01:10:32.330Z,5.15
2023-03-29T01:13:09.446Z,5.17
2023-03-29T01:15:51.227Z,5.19
2023-03-29T01:18:23.055Z,5.20
2023-03-29T01:21:21.304Z,5.21
2023-03-29T01:24:30.640Z,5.21
2023-03-29T01:27:03.320Z,5.22
2023-03-29T01:29:39.076Z,5.24
2023-03-29T01:32:18.461Z,5.23
2023-03-29T01:34:56.557Z,5.23
2023-03-29T01:37:53.024Z,5.22
2023-03-29T01:40:31.105Z,5.22
2023-03-29T01:43:12.295Z,5.21
2023-03-29T01:46:01.399Z,5.22
2023-03-29T01:48:48.137Z,5.22
2023-03-29T01:51:23.773Z,5.21
2023-03-29T01:54:01.596Z,5.20
2023-03-29T01:56:41.219Z,5.21
2023-03-29T01:59:18.411Z,5.22
2023-03-29T02:01:53.692Z,5.23
2023-03-29T02:04:35.365Z,5.23
2023-03-29T02:07:14.135Z,5.22
2023-03-29T02:09:46.198Z,5.23
2023-03-29T02:12:18.236Z,5.24
2023-03-29T02:14:49.302Z,5.26
2023-03-29T02:17:25.091Z,5.28
2023-03-29T02:20:09.655Z,5.29
2023-03-29T02:22:48.026Z,5.31
2023-03-29T02:25:22.600Z,5.31
2023-03-29T02:27:54.330Z,5.32
2023-03-29T02:30:31.434Z,5.32
2023-03-29T02:33:10.633Z,5.34
2023-03-29T02:35:48.441Z,5.35
2023-03-29T02:38:19.247Z,5.36
2023-03-29T02:40:50.153Z,5.37
2023-03-29T02:43:25.856Z,5.37
2023-03-29T02:45:57.659Z,5.39
2023-03-29T02:48:47.933Z,5.39
2023-03-29T02:51:21.840Z,5.40
2023-03-29T02:54:06.245Z,5.40
2023-03-29T02:56:45.145Z,5.43
2023-03-29T02:59:20.659Z,5.47
2023-03-29T03:02:02.031Z,5.48
2023-03-29T03:04:31.412Z,5.48
2023-03-29T03:07:22.131Z,5.48
2023-03-29T03:10:01.739Z,5.46
2023-03-29T03:12:46.063Z,5.45
2023-03-29T03:15:16.827Z,5.44
2023-03-29T03:17:52.749Z,5.44
2023-03-29T03:20:32.516Z,5.43
2023-03-29T03:23:08.999Z,5.40
2023-03-29T03:25:50.762Z,5.38
2023-03-29T03:28:41.584Z,5.35
2023-03-29T03:31:25.967Z,5.34
2023-03-29T03:34:17.748Z,5.33
2023-03-29T03:37:12.233Z,5.32
2023-03-29T03:39:53.653Z,5.30
2023-03-29T03:42:43.126Z,5.27
2023-03-29T03:45:19.689Z,5.22
2023-03-29T03:48:09.798Z,5.17
2023-03-29T03:50:53.970Z,5.13
2023-03-29T03:53:36.556Z,5.07
2023-03-29T03:56:29.985Z,5.03
2023-03-29T03:59:07.075Z,5.00
2023-03-29T04:01:43.674Z,5.00
2023-03-29T04:04:37.304Z,4.98
2023-03-29T04:07:13.183Z,4.97
2023-03-29T04:10:19.104Z,4.97
2023-03-29T04:13:12.912Z,4.99
2023-03-29T04:16:07.416Z,4.99
2023-03-29T04:18:58.399Z,5.00
2023-03-29T04:21:49.628Z,5.00
2023-03-29T04:24:30.318Z,5.00
2023-03-29T04:27:19.841Z,5.01
2023-03-29T04:30:00.874Z,5.01
2023-03-29T04:32:52.163Z,5.00
2023-03-29T04:35:43.674Z,5.01
2023-03-29T04:38:24.065Z,5.01
2023-03-29T04:41:15.519Z,5.00
2023-03-29T04:44:12.425Z,4.98
2023-03-29T04:46:48.013Z,4.97
2023-03-29T04:49:38.885Z,4.97
2023-03-29T04:52:12.531Z,4.99
2023-03-29T04:54:43.194Z,5.04
2023-03-29T04:57:39.883Z,5.07
2023-03-29T05:00:27.347Z,5.11
2023-03-29T05:03:16.620Z,5.13
2023-03-29T05:06:22.645Z,5.15
2023-03-29T05:09:17.122Z,5.16
2023-03-29T05:12:06.633Z,5.20
2023-03-29T05:14:57.555Z,5.29
2023-03-29T05:17:29.975Z,5.34
2023-03-29T05:20:09.529Z,5.40
2023-03-29T05:22:40.806Z,5.51
2023-03-29T05:25:20.915Z,5.67
2023-03-29T05:28:11.770Z,5.80
2023-03-29T05:31:02.603Z,5.91
2023-03-29T05:33:43.007Z,6.01
2023-03-29T05:36:26.917Z,6.13
2023-03-29T05:39:01.923Z,6.24
2023-03-29T05:41:33.594Z,6.34
2023-03-29T05:44:36.780Z,6.43
2023-03-29T05:47:14.934Z,6.49
2023-03-29T05:49:55.609Z,6.56
2023-03-29T05:52:28.790Z,6.62
2023-03-29T05:55:24.274Z,6.68
2023-03-29T05:58:02.549Z,6.73
2023-03-29T06:00:44.169Z,6.78
2023-03-29T06:03:44.046Z,6.84
2023-03-29T06:06:28.912Z,6.89
2023-03-29T06:09:20.080Z,6.92
2023-03-29T06:12:20.134Z,6.95
2023-03-29T06:15:14.453Z,6.97
2023-03-29T06:18:02.264Z,6.99
2023-03-29T06:20:36.938Z,7.02
2023-03-29T06:23:28.232Z,7.06
2023-03-29T06:26:10.780Z,7.09
2023-03-29T06:28:53.121Z,7.13
2023-03-29T06:31:26.469Z,7.17
2023-03-29T06:33:59.985Z,7.22
2023-03-29T06:36:57.636Z,7.29
2023-03-29T06:39:42.378Z,7.35
2023-03-29T06:42:33.190Z,7.41
2023-03-29T06:45:25.318Z,7.46
2023-03-29T06:48:00.583Z,7.50
2023-03-29T06:50:52.310Z,7.55
2023-03-29T06:53:37.904Z,7.59
2023-03-29T06:56:30.003Z,7.66
2023-03-29T06:59:18.170Z,7.74
2023-03-29T07:02:12.615Z,7.81
2023-03-29T07:04:50.478Z,7.87
2023-03-29T07:07:53.695Z,7.93
2023-03-29T07:10:34.710Z,8.01
2023-03-29T07:13:34.916Z,8.08
2023-03-29T07:16:26.386Z,8.17
2023-03-29T07:19:03.835Z,8.28
2023-03-29T07:22:03.535Z,8.40
2023-03-29T07:25:01.015Z,8.53
2023-03-29T07:27:33.578Z,8.66
2023-03-29T07:30:30.270Z,8.82
2023-03-29T07:33:25.313Z,8.93
2023-03-29T07:36:02.084Z,9.04
2023-03-29T07:38:41.869Z,9.13
2023-03-29T07:41:16.940Z,9.23
2023-03-29T07:43:54.357Z,9.32
2023-03-29T07:46:29.468Z,9.42
2023-03-29T07:49:03.701Z,9.51
2023-03-29T07:51:44.595Z,9.53
2023-03-29T07:54:17.903Z,9.55
2023-03-29T07:57:17.839Z,9.56
2023-03-29T07:59:55.360Z,9.59
2023-03-29T08:02:29.837Z,9.62
2023-03-29T08:05:02.324Z,9.63
2023-03-29T08:08:12.367Z,9.60
2023-03-29T08:10:51.974Z,9.58
2023-03-29T08:13:34.683Z,9.58
2023-03-29T08:16:29.951Z,9.62
2023-03-29T08:19:09.071Z,9.65
2023-03-29T08:22:18.368Z,9.68
2023-03-29T08:25:12.193Z,9.70
2023-03-29T08:27:47.354Z,9.75
2023-03-29T08:30:21.172Z,9.81
2023-03-29T08:32:55.266Z,9.84
2023-03-29T08:35:29.137Z,9.85
2023-03-29T08:38:23.790Z,9.86
2023-03-29T08:41:23.381Z,9.87
2023-03-29T08:44:09.636Z,9.91
2023-03-29T08:47:11.645Z,9.97
2023-03-29T08:49:49.471Z,10.05
2023-03-29T08:52:25.274Z,10.13
2023-03-29T08:54:59.714Z,10.25
2023-03-29T08:57:58.634Z,10.36
2023-03-29T09:00:38.881Z,10.40
2023-03-29T09:03:19.396Z,10.43
2023-03-29T09:05:54.567Z,10.42
2023-03-29T09:08:29.123Z,10.44
2023-03-29T09:11:13.710Z,10.47
2023-03-29T09:13:53.065Z,10.53
2023-03-29T09:16:32.518Z,10.60
2023-03-29T09:19:14.656Z,10.64
2023-03-29T09:21:50.790Z,10.66
2023-03-29T09:24:37.610Z,10.67
2023-03-29T09:27:25.205Z,10.65
2023-03-29T09:30:08.762Z,10.66
2023-03-29T09:33:06.064Z,10.68
2023-03-29T09:36:06.295Z,10.73
2023-03-29T09:38:42.453Z,10.78
2023-03-29T09:41:26.672Z,10.76
2023-03-29T09:44:02.044Z,10.71
2023-03-29T09:46:57.780Z,10.68
2023-03-29T09:49:37.373Z,10.67
2023-03-29T09:52:13.978Z,10.62
2023-03-29T09:55:03.781Z,10.57
2023-03-29T09:58:00.336Z,10.58
2023-03-29T10:00:44.811Z,10.66
2023-03-29T10:03:23.100Z,10.77
2023-03-29T10:06:15.252Z,10.92
2023-03-29T10:08:57.574Z,11.04
2023-03-29T10:11:35.105Z,11.18
2023-03-29T10:14:13.549Z,11.31
2023-03-29T10:16:47.726Z,11.47
2023-03-29T10:19:23.104Z,11.65
2023-03-29T10:22:00.639Z,11.87
2023-03-29T10:24:34.424Z,12.08
2023-03-29T10:27:09.125Z,12.21
2023-03-29T10:29:42.706Z,12.35
2023-03-29T10:32:29.318Z,12.51
2023-03-29T10:35:15.957Z,12.67
2023-03-29T10:37:50.890Z,12.89
2023-03-29T10:40:28.796Z,13.04
2023-03-29T10:43:12.333Z,13.20
2023-03-29T10:45:43.892Z,13.35
2023-03-29T10:48:19.932Z,13.48
2023-03-29T10:50:53.753Z,13.61
2023-03-29T10:53:27.677Z,13.72
2023-03-29T10:56:11.190Z,13.79
2023-03-29T10:58:56.803Z,13.93
2023-03-29T11:01:33.405Z,14.09
2023-03-29T11:04:27.094Z,14.26
2023-03-29T11:07:17.602Z,14.44
2023-03-29T11:09:57.259Z,14.67
2023-03-29T11:12:35.908Z,14.86
2023-03-29T11:15:29.536Z,15.15
2023-03-29T11:18:17.336Z,15.20
2023-03-29T11:21:00.524Z,15.18
2023-03-29T11:23:42.132Z,15.25
2023-03-29T11:26:15.708Z,15.30
2023-03-29T11:28:53.175Z,15.27
2023-03-29T11:31:38.841Z,15.30
2023-03-29T11:34:29.636Z,15.26
2023-03-29T11:37:07.826Z,15.31
2023-03-29T11:39:46.753Z,15.37
2023-03-29T11:42:21.402Z,15.32
2023-03-29T11:44:55.934Z,15.27
2023-03-29T11:47:31.336Z,15.26
2023-03-29T11:50:06.575Z,15.29
2023-03-29T11:52:41.506Z,15.26
2023-03-29T11:55:17.287Z,15.38
2023-03-29T11:57:52.756Z,15.56
2023-03-29T12:00:29.108Z,15.81
2023-03-29T12:03:05.124Z,16.15
2023-03-29T12:05:43.088Z,16.27
2023-03-29T12:08:19.255Z,16.24
2023-03-29T12:10:54.292Z,16.11
2023-03-29T12:13:29.738Z,16.00
2023-03-29T12:16:13.841Z,16.07
2023-03-29T12:18:50.497Z,16.21
2023-03-29T12:21:24.049Z,16.36
2023-03-29T12:23:56.445Z,16.39
2023-03-29T12:26:35.392Z,16.52
2023-03-29T12:29:21.763Z,16.61
2023-03-29T12:32:02.882Z,16.60
2023-03-29T12:34:59.826Z,16.57
2023-03-29T12:37:58.772Z,16.72
2023-03-29T12:41:02.132Z,17.01
2023-03-29T12:43:53.678Z,17.55
2023-03-29T12:47:11.529Z,18.11
2023-03-29T12:49:50.828Z,18.55
2023-03-29T12:52:48.835Z,18.78
2023-03-29T12:55:52.314Z,19.14
2023-03-29T12:59:07.280Z,19.11
2023-03-29T13:02:03.725Z,18.88
2023-03-29T13:08:00.450Z,18.86
2023-03-29T13:10:58.806Z,18.92
2023-03-29T13:13:34.846Z,18.96
2023-03-29T13:16:18.333Z,19.07
2023-03-29T13:19:09.337Z,19.15
2023-03-29T13:21:50.696Z,19.41
2023-03-29T13:24:38.216Z,19.57
2023-03-29T13:27:21.618Z,19.86
2023-03-29T13:30:12.971Z,19.90
2023-03-29T13:32:52.691Z,19.95
2023-03-29T13:35:36.875Z,20.09
2023-03-29T13:38:19.675Z,20.13
2023-03-29T13:41:04.460Z,20.17
2023-03-29T13:43:54.356Z,20.19
2023-03-29T13:46:38.910Z,20.35
2023-03-29T13:49:22.608Z,20.50
2023-03-29T13:52:12.472Z,20.70
2023-03-29T13:54:51.863Z,20.66
2023-03-29T13:57:26.263Z,20.80
2023-03-29T14:00:01.405Z,20.96
2023-03-29T14:02:39.498Z,20.91
2023-03-29T14:05:13.883Z,20.56
2023-03-29T14:07:48.709Z,20.40
2023-03-29T14:10:26.107Z,20.41
2023-03-29T14:13:04.359Z,20.54
2023-03-29T14:15:46.671Z,20.64
2023-03-29T14:18:21.142Z,20.59
2023-03-29T14:20:55.087Z,20.40
2023-03-29T14:23:30.068Z,20.05
2023-03-29T14:26:10.595Z,19.73
2023-03-29T14:28:47.181Z,19.46
2023-03-29T14:31:25.775Z,19.22
2023-03-29T14:33:57.683Z,19.01
2023-03-29T14:36:29.750Z,18.69
2023-03-29T14:39:03.043Z,18.40
2023-03-29T14:41:35.777Z,18.03
2023-03-29T14:44:08.559Z,17.83
2023-03-29T14:46:40.340Z,17.61
2023-03-29T14:49:13.774Z,17.43
2023-03-29T14:51:44.809Z,17.34
2023-03-29T14:54:22.144Z,17.33
2023-03-29T14:56:53.835Z,17.40
2023-03-29T14:59:30.755Z,17.46
2023-03-29T15:02:01.747Z,17.35
2023-03-29T15:04:37.532Z,17.19
2023-03-29T15:07:08.322Z,16.97
2023-03-29T15:09:40.158Z,16.85
2023-03-29T15:12:17.823Z,16.82
2023-03-29T15:14:52.413Z,16.74
2023-03-29T15:17:46.833Z,16.80
2023-03-29T15:20:25.757Z,16.82
2023-03-29T15:23:00.003Z,16.77
2023-03-29T15:25:34.153Z,16.63
2023-03-29T15:28:04.824Z,16.48
2023-03-29T15:30:39.093Z,16.32
2023-03-29T15:33:21.124Z,16.20
2023-03-29T15:35:54.948Z,16.12
2023-03-29T15:38:36.749Z,16.05
2023-03-29T15:41:15.491Z,15.92
2023-03-29T15:43:46.419Z,15.82
2023-03-29T15:46:17.665Z,15.73
2023-03-29T15:48:46.706Z,15.66
2023-03-29T15:51:17.387Z,15.60
2023-03-29T15:53:48.015Z,15.56
2023-03-29T15:56:22.900Z,15.55
2023-03-29T15:58:53.770Z,15.53
2023-03-29T16:01:34.830Z,15.48
2023-03-29T16:04:07.901Z,15.41
2023-03-29T16:06:38.889Z,15.34
2023-03-29T16:09:11.872Z,15.29
2023-03-29T16:11:44.037Z,15.26
2023-03-29T16:14:24.315Z,15.23
2023-03-29T16:16:55.866Z,15.21
2023-03-29T16:19:27.530Z,15.18
2023-03-29T16:21:58.564Z,15.17
2023-03-29T16:24:32.906Z,15.13
2023-03-29T16:27:04.078Z,15.11
2023-03-29T16:29:34.810Z,15.11
2023-03-29T16:32:06.871Z,15.11
2023-03-29T16:34:38.198Z,15.10
2023-03-29T16:37:08.793Z,15.08
2023-03-29T16:39:39.599Z,15.07
2023-03-29T16:42:12.392Z,15.05
2023-03-29T16:44:44.484Z,15.03
2023-03-29T16:47:15.396Z,14.99
2023-03-29T16:49:48.748Z,14.96
2023-03-29T16:52:19.613Z,14.93
2023-03-29T16:54:50.660Z,14.89
2023-03-29T16:57:21.342Z,14.84
2023-03-29T16:59:52.183Z,14.78
2023-03-29T17:02:22.775Z,14.72
2023-03-29T17:04:53.421Z,14.67
2023-03-29T17:07:30.653Z,14.61
2023-03-29T17:10:04.623Z,14.55
2023-03-29T17:12:35.386Z,14.49
2023-03-29T17:15:07.970Z,14.45
2023-03-29T17:17:39.047Z,14.37
2023-03-29T17:20:12.449Z,14.30
2023-03-29T17:22:43.018Z,14.22
2023-03-29T17:25:13.828Z,14.16
2023-03-29T17:27:45.416Z,14.11
2023-03-29T17:30:17.060Z,14.06
2023-03-29T17:32:47.732Z,14.01
2023-03-29T17:35:18.481Z,13.97
2023-03-29T17:37:49.146Z,13.94
2023-03-29T17:40:23.070Z,13.89
2023-03-29T17:42:54.270Z,13.87
2023-03-29T17:45:25.461Z,13.82
2023-03-29T17:47:56.267Z,13.77
2023-03-29T17:50:27.208Z,13.75
2023-03-29T17:52:57.784Z,13.73
2023-03-29T17:55:28.415Z,13.70
2023-03-29T17:57:59.187Z,13.67
2023-03-29T18:00:30.224Z,13.62
2023-03-29T18:03:01.118Z,13.57
2023-03-29T18:05:31.778Z,13.52
2023-03-29T18:08:02.496Z,13.46
2023-03-29T18:10:33.097Z,13.41
2023-03-29T18:13:03.915Z,13.37
2023-03-29T18:15:34.584Z,13.36
2023-03-29T18:18:05.371Z,13.33
2023-03-29T18:20:36.161Z,13.32
2023-03-29T18:23:06.915Z,13.31
2023-03-29T18:25:38.812Z,13.29
2023-03-29T18:28:10.063Z,13.27
2023-03-29T18:30:40.859Z,13.27
2023-03-29T18:33:11.580Z,13.25
2023-03-29T18:35:48.443Z,13.22
2023-03-29T18:38:20.143Z,13.19
2023-03-29T18:40:51.557Z,13.16
2023-03-29T18:43:22.329Z,13.14
2023-03-29T18:45:52.998Z,13.13
2023-03-29T18:48:23.927Z,13.10
2023-03-29T18:50:56.572Z,13.08
2023-03-29T18:53:27.807Z,13.05
2023-03-29T18:56:01.059Z,13.02
2023-03-29T18:58:32.676Z,13.00
2023-03-29T19:01:08.159Z,12.98
2023-03-29T19:03:39.242Z,12.95
2023-03-29T19:06:11.911Z,12.93
2023-03-29T19:08:43.088Z,12.89
2023-03-29T19:11:15.426Z,12.90
2023-03-29T19:13:50.235Z,13.00
2023-03-29T19:16:20.915Z,13.06
2023-03-29T19:18:51.867Z,13.09
2023-03-29T19:21:22.683Z,13.21
2023-03-29T19:23:53.330Z,13.45
2023-03-29T19:26:24.365Z,13.66
2023-03-29T19:28:55.283Z,13.74
2023-03-29T19:31:26.653Z,13.73
2023-03-29T19:33:56.244Z,13.68
2023-03-29T19:36:28.421Z,13.57
2023-03-29T19:38:59.505Z,13.47
2023-03-29T19:41:30.532Z,13.36
2023-03-29T19:44:01.204Z,13.26
2023-03-29T19:46:31.965Z,13.18
2023-03-29T19:49:05.158Z,13.10
2023-03-29T19:51:36.553Z,13.06
2023-03-29T19:54:08.177Z,13.04
2023-03-29T19:56:39.009Z,13.03
2023-03-29T19:59:11.440Z,13.04
2023-03-29T20:01:42.860Z,13.03
2023-03-29T20:04:13.968Z,13.04
2023-03-29T20:06:44.975Z,13.04
2023-03-29T20:09:16.177Z,13.05
2023-03-29T20:11:47.825Z,13.06
2023-03-29T20:14:18.621Z,13.09
2023-03-29T20:16:50.929Z,13.11
2023-03-29T20:19:25.400Z,13.12
2023-03-29T20:21:57.454Z,13.12
2023-03-29T20:24:28.321Z,13.11
2023-03-29T20:27:00.867Z,13.11
2023-03-29T20:29:33.275Z,13.09
2023-03-29T20:32:04.166Z,13.08
2023-03-29T20:34:34.614Z,13.08
2023-03-29T20:37:06.416Z,13.07
2023-03-29T20:39:37.234Z,13.09
2023-03-29T20:42:08.588Z,13.10
2023-03-29T20:44:39.299Z,13.08
2023-03-29T20:47:14.586Z,13.05
2023-03-29T20:49:45.555Z,13.05
2023-03-29T20:52:18.098Z,13.06
2023-03-29T20:54:49.802Z,13.05
2023-03-29T20:57:22.461Z,13.05
2023-03-29T20:59:53.482Z,13.03
2023-03-29T21:02:25.085Z,13.03
2023-03-29T21:05:00.320Z,13.07
2023-03-29T21:07:31.390Z,13.12
2023-03-29T21:10:02.817Z,13.17
2023-03-29T21:12:32.365Z,13.21
2023-03-29T21:15:03.564Z,13.22
2023-03-29T21:17:37.966Z,13.19
2023-03-29T21:20:11.277Z,13.18
2023-03-29T21:22:43.196Z,13.30
2023-03-29T21:25:15.990Z,13.53
2023-03-29T21:27:46.833Z,13.76
2023-03-29T21:30:18.101Z,13.96
2023-03-29T21:32:48.898Z,14.12
2023-03-29T21:35:20.011Z,14.33
2023-03-29T21:37:51.077Z,14.45
2023-03-29T21:40:22.208Z,14.52
2023-03-29T21:42:53.050Z,14.65
2023-03-29T21:45:23.689Z,14.71
2023-03-29T21:47:54.444Z,14.71
2023-03-29T21:50:25.130Z,14.76
2023-03-29T21:52:55.830Z,14.82
2023-03-29T21:55:26.441Z,14.87
2023-03-29T21:57:57.059Z,14.95
2023-03-29T22:00:27.850Z,15.05
2023-03-29T22:02:58.509Z,15.10
2023-03-29T22:05:29.322Z,15.16
2023-03-29T22:08:00.430Z,15.22
2023-03-29T22:10:33.146Z,15.26
2023-03-29T22:13:03.765Z,15.30
2023-03-29T22:15:35.578Z,15.34
2023-03-29T22:18:10.157Z,15.38
2023-03-29T22:20:41.139Z,15.39
2023-03-29T22:23:11.840Z,15.40
2023-03-29T22:25:42.484Z,15.41
2023-03-29T22:28:13.656Z,15.41
2023-03-29T22:30:42.667Z,15.43
2023-03-29T22:33:13.234Z,15.43
2023-03-29T22:35:44.025Z,15.42
2023-03-29T22:38:14.795Z,15.41
2023-03-29T22:40:45.541Z,15.43
2023-03-29T22:43:16.058Z,15.45
2023-03-29T22:45:46.820Z,15.42
2023-03-29T22:48:17.396Z,15.39
2023-03-29T22:50:50.065Z,15.38
2023-03-29T22:53:21.545Z,15.38
2023-03-29T22:55:54.817Z,15.40
2023-03-29T22:58:25.949Z,15.42
2023-03-29T23:00:57.064Z,15.40
2023-03-29T23:03:27.674Z,15.38
2023-03-29T23:06:02.324Z,15.36
2023-03-29T23:08:34.753Z,15.35
2023-03-29T23:11:07.464Z,15.33
2023-03-29T23:13:38.821Z,15.31
2023-03-29T23:16:08.561Z,15.31
2023-03-29T23:18:39.194Z,15.30
2023-03-29T23:21:10.576Z,15.25
2023-03-29T23:23:41.704Z,15.23
2023-03-29T23:26:12.273Z,15.21
2023-03-29T23:28:42.796Z,15.17
2023-03-29T23:31:18.335Z,15.14
2023-03-29T23:33:49.614Z,15.10
2023-03-29T23:36:22.964Z,15.09
2023-03-29T23:38:53.545Z,15.07
2023-03-29T23:41:28.359Z,15.05
2023-03-29T23:43:58.930Z,15.05
2023-03-29T23:46:29.530Z,15.04
2023-03-29T23:49:00.289Z,15.02
2023-03-29T23:51:30.816Z,15.01
2023-03-29T23:54:01.446Z,15.00
2023-03-29T23:56:32.094Z,14.99
2023-03-29T23:59:03.316Z,15.01
